Terminal Aerodrome Forecast
Issued by NWS Lake Charles, LA

Home | Current Version | Previous Version | Text Only | Print | Product List | Glossary On
Versions: 1 2 3 4 5 6 7 8 9 10 11 12 13 14 15
000
FTUS44 KLCH 071145 CCA
TAFARA
TAF COR
KARA 071145Z 0712/0812 00000KT 3SM BR SKC
      TEMPO 0712/0714 1SM BR
     FM071400 VRB03KT P6SM SKC
     FM072000 21007KT P6SM SCT250
     FM080100 VRB03KT P6SM BKN250=

USA.gov is the U.S. government's official web portal to all federal, state and local government web resources and services.